sensor_id;sensor_type;location;lat;lon;timestamp;P1;durP1;ratioP1;P2;durP2;ratioP2
57899;SDS011;60605;53.716;19.940;2023-09-18T00:01:05;12.90;;;11.50;;
57899;SDS011;60605;53.716;19.940;2023-09-18T00:06:15;17.30;;;12.90;;
57899;SDS011;60605;53.716;19.940;2023-09-18T00:11:18;13.70;;;12.10;;
57899;SDS011;60605;53.716;19.940;2023-09-18T00:16:22;15.50;;;11.90;;
57899;SDS011;60605;53.716;19.940;2023-09-18T00:21:26;18.40;;;13.60;;
57899;SDS011;60605;53.716;19.940;2023-09-18T00:26:29;15.60;;;13.00;;
57899;SDS011;60605;53.716;19.940;2023-09-18T00:31:32;15.20;;;13.60;;
57899;SDS011;60605;53.716;19.940;2023-09-18T00:36:36;13.40;;;11.90;;
57899;SDS011;60605;53.716;19.940;2023-09-18T00:41:39;18.00;;;13.80;;
57899;SDS011;60605;53.716;19.940;2023-09-18T00:46:44;15.80;;;14.00;;
57899;SDS011;60605;53.716;19.940;2023-09-18T00:51:48;15.70;;;14.10;;
57899;SDS011;60605;53.716;19.940;2023-09-18T00:56:53;15.60;;;13.90;;
57899;SDS011;60605;53.716;19.940;2023-09-18T01:01:58;17.90;;;13.70;;
57899;SDS011;60605;53.716;19.940;2023-09-18T01:07:02;15.70;;;14.10;;
57899;SDS011;60605;53.716;19.940;2023-09-18T01:17:15;17.00;;;14.50;;
57899;SDS011;60605;53.716;19.940;2023-09-18T01:22:19;15.20;;;13.70;;
57899;SDS011;60605;53.716;19.940;2023-09-18T01:27:24;15.50;;;13.90;;
57899;SDS011;60605;53.716;19.940;2023-09-18T01:32:28;15.90;;;14.30;;
57899;SDS011;60605;53.716;19.940;2023-09-18T01:37:34;15.10;;;13.60;;
57899;SDS011;60605;53.716;19.940;2023-09-18T01:42:39;16.60;;;14.60;;
57899;SDS011;60605;53.716;19.940;2023-09-18T01:47:45;17.10;;;15.40;;
57899;SDS011;60605;53.716;19.940;2023-09-18T01:52:49;18.00;;;16.20;;
57899;SDS011;60605;53.716;19.940;2023-09-18T01:57:52;17.10;;;15.30;;
57899;SDS011;60605;53.716;19.940;2023-09-18T02:02:55;17.60;;;15.70;;
57899;SDS011;60605;53.716;19.940;2023-09-18T02:13:22;18.20;;;16.30;;
57899;SDS011;60605;53.716;19.940;2023-09-18T02:18:26;18.80;;;16.60;;
57899;SDS011;60605;53.716;19.940;2023-09-18T02:23:30;18.70;;;16.60;;
57899;SDS011;60605;53.716;19.940;2023-09-18T02:28:33;17.70;;;15.80;;
57899;SDS011;60605;53.716;19.940;2023-09-18T02:33:37;17.90;;;16.00;;
57899;SDS011;60605;53.716;19.940;2023-09-18T02:38:42;20.50;;;16.90;;
57899;SDS011;60605;53.716;19.940;2023-09-18T02:43:46;18.50;;;16.50;;
57899;SDS011;60605;53.716;19.940;2023-09-18T02:48:49;17.20;;;15.00;;
57899;SDS011;60605;53.716;19.940;2023-09-18T02:53:53;17.50;;;15.30;;
57899;SDS011;60605;53.716;19.940;2023-09-18T02:58:57;15.90;;;13.90;;
57899;SDS011;60605;53.716;19.940;2023-09-18T03:04:00;16.80;;;14.90;;
57899;SDS011;60605;53.716;19.940;2023-09-18T03:09:04;17.70;;;15.10;;
57899;SDS011;60605;53.716;19.940;2023-09-18T03:14:08;17.90;;;15.10;;
57899;SDS011;60605;53.716;19.940;2023-09-18T03:19:11;16.90;;;15.10;;
57899;SDS011;60605;53.716;19.940;2023-09-18T03:24:15;18.20;;;14.70;;
57899;SDS011;60605;53.716;19.940;2023-09-18T03:29:18;17.70;;;15.90;;
57899;SDS011;60605;53.716;19.940;2023-09-18T03:34:22;18.60;;;16.70;;
57899;SDS011;60605;53.716;19.940;2023-09-18T03:39:25;19.00;;;17.00;;
57899;SDS011;60605;53.716;19.940;2023-09-18T03:44:28;19.00;;;16.30;;
57899;SDS011;60605;53.716;19.940;2023-09-18T03:49:32;19.50;;;17.30;;
57899;SDS011;60605;53.716;19.940;2023-09-18T03:54:35;19.40;;;16.30;;
57899;SDS011;60605;53.716;19.940;2023-09-18T03:59:38;17.70;;;16.00;;
57899;SDS011;60605;53.716;19.940;2023-09-18T04:04:42;20.00;;;17.10;;
57899;SDS011;60605;53.716;19.940;2023-09-18T04:09:45;18.20;;;16.30;;
57899;SDS011;60605;53.716;19.940;2023-09-18T04:14:50;20.90;;;16.90;;
57899;SDS011;60605;53.716;19.940;2023-09-18T04:19:54;18.20;;;16.30;;
57899;SDS011;60605;53.716;19.940;2023-09-18T04:24:57;18.80;;;16.40;;
57899;SDS011;60605;53.716;19.940;2023-09-18T04:30:00;20.00;;;17.20;;
57899;SDS011;60605;53.716;19.940;2023-09-18T04:35:04;18.50;;;16.50;;
57899;SDS011;60605;53.716;19.940;2023-09-18T04:40:08;17.90;;;15.90;;
57899;SDS011;60605;53.716;19.940;2023-09-18T04:45:15;19.10;;;17.20;;
57899;SDS011;60605;53.716;19.940;2023-09-18T04:50:18;18.20;;;16.30;;
57899;SDS011;60605;53.716;19.940;2023-09-18T04:55:22;18.00;;;16.20;;
57899;SDS011;60605;53.716;19.940;2023-09-18T05:00:26;18.20;;;15.90;;
57899;SDS011;60605;53.716;19.940;2023-09-18T05:05:30;16.60;;;14.90;;
57899;SDS011;60605;53.716;19.940;2023-09-18T05:10:34;16.30;;;14.10;;
57899;SDS011;60605;53.716;19.940;2023-09-18T05:15:37;18.00;;;13.20;;
57899;SDS011;60605;53.716;19.940;2023-09-18T05:20:41;14.50;;;13.00;;
57899;SDS011;60605;53.716;19.940;2023-09-18T05:25:44;14.00;;;11.10;;
57899;SDS011;60605;53.716;19.940;2023-09-18T05:30:47;11.10;;;9.90;;
57899;SDS011;60605;53.716;19.940;2023-09-18T05:35:51;13.80;;;9.10;;
57899;SDS011;60605;53.716;19.940;2023-09-18T05:40:54;11.50;;;8.40;;
57899;SDS011;60605;53.716;19.940;2023-09-18T05:45:58;10.30;;;8.10;;
57899;SDS011;60605;53.716;19.940;2023-09-18T05:51:02;11.30;;;8.30;;
57899;SDS011;60605;53.716;19.940;2023-09-18T05:56:07;10.30;;;7.90;;
57899;SDS011;60605;53.716;19.940;2023-09-18T06:01:12;13.40;;;8.10;;
57899;SDS011;60605;53.716;19.940;2023-09-18T06:06:16;10.10;;;8.00;;
57899;SDS011;60605;53.716;19.940;2023-09-18T06:11:19;11.30;;;7.80;;
57899;SDS011;60605;53.716;19.940;2023-09-18T06:16:23;13.10;;;7.60;;
57899;SDS011;60605;53.716;19.940;2023-09-18T06:21:27;15.00;;;7.80;;
57899;SDS011;60605;53.716;19.940;2023-09-18T06:26:31;9.70;;;7.50;;
57899;SDS011;60605;53.716;19.940;2023-09-18T06:31:35;10.30;;;7.50;;
57899;SDS011;60605;53.716;19.940;2023-09-18T06:36:38;11.10;;;7.70;;
57899;SDS011;60605;53.716;19.940;2023-09-18T06:41:42;8.10;;;7.30;;
57899;SDS011;60605;53.716;19.940;2023-09-18T06:46:45;8.20;;;7.30;;
57899;SDS011;60605;53.716;19.940;2023-09-18T06:51:49;7.70;;;6.90;;
57899;SDS011;60605;53.716;19.940;2023-09-18T06:56:52;8.70;;;6.70;;
57899;SDS011;60605;53.716;19.940;2023-09-18T07:01:55;6.50;;;6.00;;
57899;SDS011;60605;53.716;19.940;2023-09-18T07:06:59;6.20;;;5.60;;
57899;SDS011;60605;53.716;19.940;2023-09-18T07:12:02;6.50;;;5.90;;
57899;SDS011;60605;53.716;19.940;2023-09-18T07:17:06;8.30;;;5.50;;
57899;SDS011;60605;53.716;19.940;2023-09-18T07:22:09;6.80;;;5.90;;
57899;SDS011;60605;53.716;19.940;2023-09-18T07:27:12;8.20;;;5.20;;
57899;SDS011;60605;53.716;19.940;2023-09-18T07:32:16;5.30;;;4.90;;
57899;SDS011;60605;53.716;19.940;2023-09-18T07:37:38;5.50;;;5.00;;
57899;SDS011;60605;53.716;19.940;2023-09-18T07:42:42;5.50;;;4.90;;
57899;SDS011;60605;53.716;19.940;2023-09-18T07:47:46;6.90;;;4.30;;
57899;SDS011;60605;53.716;19.940;2023-09-18T07:52:50;7.00;;;4.60;;
57899;SDS011;60605;53.716;19.940;2023-09-18T07:57:53;5.90;;;4.10;;
57899;SDS011;60605;53.716;19.940;2023-09-18T08:02:57;6.90;;;4.70;;
57899;SDS011;60605;53.716;19.940;2023-09-18T08:08:04;5.70;;;4.20;;
57899;SDS011;60605;53.716;19.940;2023-09-18T08:13:08;5.50;;;4.00;;
57899;SDS011;60605;53.716;19.940;2023-09-18T08:18:11;8.60;;;4.80;;
57899;SDS011;60605;53.716;19.940;2023-09-18T08:23:19;9.70;;;4.10;;
57899;SDS011;60605;53.716;19.940;2023-09-18T08:28:22;5.90;;;3.60;;
57899;SDS011;60605;53.716;19.940;2023-09-18T08:33:26;5.90;;;3.80;;
57899;SDS011;60605;53.716;19.940;2023-09-18T08:38:29;5.30;;;3.70;;
57899;SDS011;60605;53.716;19.940;2023-09-18T08:43:33;4.30;;;3.70;;
57899;SDS011;60605;53.716;19.940;2023-09-18T08:48:36;3.50;;;3.20;;
57899;SDS011;60605;53.716;19.940;2023-09-18T08:53:41;4.90;;;3.50;;
57899;SDS011;60605;53.716;19.940;2023-09-18T08:58:45;3.40;;;3.10;;
57899;SDS011;60605;53.716;19.940;2023-09-18T09:03:49;5.50;;;2.90;;
57899;SDS011;60605;53.716;19.940;2023-09-18T09:08:53;3.50;;;3.10;;
57899;SDS011;60605;53.716;19.940;2023-09-18T09:14:18;3.10;;;2.90;;
57899;SDS011;60605;53.716;19.940;2023-09-18T09:19:29;6.60;;;3.10;;
57899;SDS011;60605;53.716;19.940;2023-09-18T09:30:02;4.20;;;2.60;;
57899;SDS011;60605;53.716;19.940;2023-09-18T09:35:07;3.00;;;2.70;;
57899;SDS011;60605;53.716;19.940;2023-09-18T09:40:11;7.70;;;3.10;;
57899;SDS011;60605;53.716;19.940;2023-09-18T09:45:17;2.50;;;2.30;;
57899;SDS011;60605;53.716;19.940;2023-09-18T09:50:21;2.70;;;2.50;;
57899;SDS011;60605;53.716;19.940;2023-09-18T10:00:32;5.40;;;2.40;;
57899;SDS011;60605;53.716;19.940;2023-09-18T10:05:50;3.20;;;2.80;;
57899;SDS011;60605;53.716;19.940;2023-09-18T10:11:01;7.40;;;3.00;;
57899;SDS011;60605;53.716;19.940;2023-09-18T10:16:11;4.00;;;3.00;;
57899;SDS011;60605;53.716;19.940;2023-09-18T10:21:30;3.00;;;2.80;;
57899;SDS011;60605;53.716;19.940;2023-09-18T10:31:58;3.20;;;2.90;;
57899;SDS011;60605;53.716;19.940;2023-09-18T10:37:02;3.50;;;3.20;;
57899;SDS011;60605;53.716;19.940;2023-09-18T10:42:10;3.60;;;3.10;;
57899;SDS011;60605;53.716;19.940;2023-09-18T10:47:16;2.90;;;2.70;;
57899;SDS011;60605;53.716;19.940;2023-09-18T10:52:21;4.80;;;3.20;;
57899;SDS011;60605;53.716;19.940;2023-09-18T10:57:25;3.60;;;3.30;;
57899;SDS011;60605;53.716;19.940;2023-09-18T11:02:29;4.20;;;3.80;;
57899;SDS011;60605;53.716;19.940;2023-09-18T11:07:32;3.00;;;2.70;;
57899;SDS011;60605;53.716;19.940;2023-09-18T11:12:42;3.80;;;3.00;;
57899;SDS011;60605;53.716;19.940;2023-09-18T11:17:54;3.40;;;3.10;;
57899;SDS011;60605;53.716;19.940;2023-09-18T11:28:24;8.40;;;3.20;;
57899;SDS011;60605;53.716;19.940;2023-09-18T11:38:57;5.00;;;3.50;;
57899;SDS011;60605;53.716;19.940;2023-09-18T11:49:20;3.90;;;3.00;;
57899;SDS011;60605;53.716;19.940;2023-09-18T11:54:31;3.30;;;3.00;;
57899;SDS011;60605;53.716;19.940;2023-09-18T11:59:37;3.30;;;3.10;;
57899;SDS011;60605;53.716;19.940;2023-09-18T12:04:47;5.00;;;3.10;;
57899;SDS011;60605;53.716;19.940;2023-09-18T12:09:53;4.10;;;3.20;;
57899;SDS011;60605;53.716;19.940;2023-09-18T12:14:57;4.70;;;3.10;;
57899;SDS011;60605;53.716;19.940;2023-09-18T12:20:00;6.20;;;3.40;;
57899;SDS011;60605;53.716;19.940;2023-09-18T12:25:11;4.20;;;3.60;;
57899;SDS011;60605;53.716;19.940;2023-09-18T12:30:19;3.70;;;3.40;;
57899;SDS011;60605;53.716;19.940;2023-09-18T12:35:24;4.00;;;3.60;;
57899;SDS011;60605;53.716;19.940;2023-09-18T12:40:33;8.00;;;3.50;;
57899;SDS011;60605;53.716;19.940;2023-09-18T12:45:36;4.30;;;3.50;;
57899;SDS011;60605;53.716;19.940;2023-09-18T12:50:40;3.70;;;3.30;;
57899;SDS011;60605;53.716;19.940;2023-09-18T12:55:44;4.00;;;3.30;;
57899;SDS011;60605;53.716;19.940;2023-09-18T13:00:49;6.00;;;3.60;;
57899;SDS011;60605;53.716;19.940;2023-09-18T13:05:54;4.20;;;3.80;;
57899;SDS011;60605;53.716;19.940;2023-09-18T13:11:10;5.00;;;3.70;;
57899;SDS011;60605;53.716;19.940;2023-09-18T13:16:21;3.80;;;3.40;;
57899;SDS011;60605;53.716;19.940;2023-09-18T13:21:25;4.00;;;3.40;;
57899;SDS011;60605;53.716;19.940;2023-09-18T13:26:28;4.30;;;3.60;;
57899;SDS011;60605;53.716;19.940;2023-09-18T13:31:32;8.80;;;3.80;;
57899;SDS011;60605;53.716;19.940;2023-09-18T13:36:35;4.60;;;4.00;;
57899;SDS011;60605;53.716;19.940;2023-09-18T13:41:40;5.20;;;3.60;;
57899;SDS011;60605;53.716;19.940;2023-09-18T13:46:47;5.30;;;4.70;;
57899;SDS011;60605;53.716;19.940;2023-09-18T13:51:50;7.80;;;5.30;;
57899;SDS011;60605;53.716;19.940;2023-09-18T13:56:54;6.60;;;4.80;;
57899;SDS011;60605;53.716;19.940;2023-09-18T14:02:00;5.00;;;4.30;;
57899;SDS011;60605;53.716;19.940;2023-09-18T14:07:04;5.80;;;4.60;;
57899;SDS011;60605;53.716;19.940;2023-09-18T14:12:08;6.20;;;4.60;;
57899;SDS011;60605;53.716;19.940;2023-09-18T14:17:12;5.20;;;4.70;;
57899;SDS011;60605;53.716;19.940;2023-09-18T14:22:15;8.60;;;4.80;;
57899;SDS011;60605;53.716;19.940;2023-09-18T14:27:18;5.60;;;4.90;;
57899;SDS011;60605;53.716;19.940;2023-09-18T14:32:22;9.70;;;5.50;;
57899;SDS011;60605;53.716;19.940;2023-09-18T14:37:25;7.70;;;4.80;;
57899;SDS011;60605;53.716;19.940;2023-09-18T14:42:29;8.10;;;5.40;;
57899;SDS011;60605;53.716;19.940;2023-09-18T14:47:32;6.80;;;5.10;;
57899;SDS011;60605;53.716;19.940;2023-09-18T14:52:35;8.30;;;5.50;;
57899;SDS011;60605;53.716;19.940;2023-09-18T14:57:38;5.90;;;4.80;;
57899;SDS011;60605;53.716;19.940;2023-09-18T15:02:42;6.50;;;5.50;;
57899;SDS011;60605;53.716;19.940;2023-09-18T15:07:45;8.00;;;5.90;;
57899;SDS011;60605;53.716;19.940;2023-09-18T15:12:48;9.30;;;6.90;;
57899;SDS011;60605;53.716;19.940;2023-09-18T15:17:52;8.40;;;6.80;;
57899;SDS011;60605;53.716;19.940;2023-09-18T15:22:55;8.00;;;7.20;;
57899;SDS011;60605;53.716;19.940;2023-09-18T15:27:59;9.00;;;7.30;;
57899;SDS011;60605;53.716;19.940;2023-09-18T15:33:02;8.20;;;7.50;;
57899;SDS011;60605;53.716;19.940;2023-09-18T15:38:06;16.20;;;8.20;;
57899;SDS011;60605;53.716;19.940;2023-09-18T15:43:09;9.40;;;8.40;;
57899;SDS011;60605;53.716;19.940;2023-09-18T15:48:13;12.20;;;8.70;;
57899;SDS011;60605;53.716;19.940;2023-09-18T15:53:16;10.70;;;9.70;;
57899;SDS011;60605;53.716;19.940;2023-09-18T15:58:20;17.90;;;10.00;;
57899;SDS011;60605;53.716;19.940;2023-09-18T16:03:26;12.30;;;9.20;;
57899;SDS011;60605;53.716;19.940;2023-09-18T16:08:30;13.30;;;10.10;;
57899;SDS011;60605;53.716;19.940;2023-09-18T16:13:33;12.70;;;9.60;;
57899;SDS011;60605;53.716;19.940;2023-09-18T16:18:37;12.50;;;9.10;;
57899;SDS011;60605;53.716;19.940;2023-09-18T16:23:42;11.00;;;9.00;;
57899;SDS011;60605;53.716;19.940;2023-09-18T16:28:45;11.50;;;9.70;;
57899;SDS011;60605;53.716;19.940;2023-09-18T16:33:50;10.40;;;9.40;;
57899;SDS011;60605;53.716;19.940;2023-09-18T16:38:54;10.50;;;9.40;;
57899;SDS011;60605;53.716;19.940;2023-09-18T16:43:58;9.90;;;8.90;;
57899;SDS011;60605;53.716;19.940;2023-09-18T16:49:02;12.20;;;8.80;;
57899;SDS011;60605;53.716;19.940;2023-09-18T16:54:07;9.20;;;8.40;;
57899;SDS011;60605;53.716;19.940;2023-09-18T16:59:18;9.90;;;8.60;;
57899;SDS011;60605;53.716;19.940;2023-09-18T17:04:22;11.60;;;8.10;;
57899;SDS011;60605;53.716;19.940;2023-09-18T17:09:26;10.40;;;8.70;;
57899;SDS011;60605;53.716;19.940;2023-09-18T17:14:29;9.80;;;8.50;;
57899;SDS011;60605;53.716;19.940;2023-09-18T17:19:33;10.20;;;8.40;;
57899;SDS011;60605;53.716;19.940;2023-09-18T17:24:37;15.40;;;8.40;;
57899;SDS011;60605;53.716;19.940;2023-09-18T17:29:41;11.10;;;8.50;;
57899;SDS011;60605;53.716;19.940;2023-09-18T17:34:45;11.70;;;7.80;;
57899;SDS011;60605;53.716;19.940;2023-09-18T17:39:50;8.80;;;7.90;;
57899;SDS011;60605;53.716;19.940;2023-09-18T17:44:53;12.10;;;8.30;;
57899;SDS011;60605;53.716;19.940;2023-09-18T17:49:56;13.00;;;8.40;;
57899;SDS011;60605;53.716;19.940;2023-09-18T17:55:00;9.40;;;7.90;;
57899;SDS011;60605;53.716;19.940;2023-09-18T18:00:08;12.80;;;8.50;;
57899;SDS011;60605;53.716;19.940;2023-09-18T18:05:18;10.30;;;8.60;;
57899;SDS011;60605;53.716;19.940;2023-09-18T18:10:30;12.00;;;8.80;;
57899;SDS011;60605;53.716;19.940;2023-09-18T18:15:36;12.50;;;9.50;;
57899;SDS011;60605;53.716;19.940;2023-09-18T18:20:44;13.70;;;9.50;;
57899;SDS011;60605;53.716;19.940;2023-09-18T18:25:50;11.30;;;8.60;;
57899;SDS011;60605;53.716;19.940;2023-09-18T18:30:57;14.60;;;9.70;;
57899;SDS011;60605;53.716;19.940;2023-09-18T18:36:00;11.00;;;9.30;;
57899;SDS011;60605;53.716;19.940;2023-09-18T18:41:05;11.20;;;9.30;;
57899;SDS011;60605;53.716;19.940;2023-09-18T18:46:09;13.40;;;11.00;;
57899;SDS011;60605;53.716;19.940;2023-09-18T18:51:14;17.80;;;10.50;;
57899;SDS011;60605;53.716;19.940;2023-09-18T18:56:23;12.30;;;10.60;;
57899;SDS011;60605;53.716;19.940;2023-09-18T19:01:27;10.90;;;9.40;;
57899;SDS011;60605;53.716;19.940;2023-09-18T19:06:32;16.90;;;10.70;;
57899;SDS011;60605;53.716;19.940;2023-09-18T19:11:37;14.10;;;9.40;;
57899;SDS011;60605;53.716;19.940;2023-09-18T19:16:40;11.70;;;10.50;;
57899;SDS011;60605;53.716;19.940;2023-09-18T19:21:44;14.30;;;11.30;;
57899;SDS011;60605;53.716;19.940;2023-09-18T19:26:48;15.60;;;11.40;;
57899;SDS011;60605;53.716;19.940;2023-09-18T19:31:53;12.00;;;10.60;;
57899;SDS011;60605;53.716;19.940;2023-09-18T19:36:57;11.90;;;10.10;;
57899;SDS011;60605;53.716;19.940;2023-09-18T19:42:11;15.40;;;10.90;;
57899;SDS011;60605;53.716;19.940;2023-09-18T19:47:15;14.00;;;10.60;;
57899;SDS011;60605;53.716;19.940;2023-09-18T19:52:19;17.30;;;11.00;;
57899;SDS011;60605;53.716;19.940;2023-09-18T19:57:23;12.20;;;10.90;;
57899;SDS011;60605;53.716;19.940;2023-09-18T20:02:27;15.10;;;12.00;;
57899;SDS011;60605;53.716;19.940;2023-09-18T20:07:32;12.70;;;11.30;;
57899;SDS011;60605;53.716;19.940;2023-09-18T20:12:36;14.10;;;11.70;;
57899;SDS011;60605;53.716;19.940;2023-09-18T20:17:40;15.20;;;11.30;;
57899;SDS011;60605;53.716;19.940;2023-09-18T20:22:45;14.20;;;11.40;;
57899;SDS011;60605;53.716;19.940;2023-09-18T20:27:48;17.00;;;11.50;;
57899;SDS011;60605;53.716;19.940;2023-09-18T20:32:52;12.50;;;11.30;;
57899;SDS011;60605;53.716;19.940;2023-09-18T20:37:55;14.60;;;11.40;;
57899;SDS011;60605;53.716;19.940;2023-09-18T20:42:59;13.80;;;11.70;;
57899;SDS011;60605;53.716;19.940;2023-09-18T20:48:02;16.20;;;12.50;;
57899;SDS011;60605;53.716;19.940;2023-09-18T20:53:06;14.80;;;11.60;;
57899;SDS011;60605;53.716;19.940;2023-09-18T20:58:10;12.80;;;11.50;;
57899;SDS011;60605;53.716;19.940;2023-09-18T21:03:15;13.70;;;12.30;;
57899;SDS011;60605;53.716;19.940;2023-09-18T21:08:22;18.90;;;13.20;;
57899;SDS011;60605;53.716;19.940;2023-09-18T21:13:27;15.00;;;12.10;;
57899;SDS011;60605;53.716;19.940;2023-09-18T21:18:30;13.10;;;11.80;;
57899;SDS011;60605;53.716;19.940;2023-09-18T21:23:34;13.30;;;12.00;;
57899;SDS011;60605;53.716;19.940;2023-09-18T21:28:38;13.70;;;11.30;;
57899;SDS011;60605;53.716;19.940;2023-09-18T21:33:43;15.40;;;12.10;;
57899;SDS011;60605;53.716;19.940;2023-09-18T21:38:52;15.60;;;10.90;;
57899;SDS011;60605;53.716;19.940;2023-09-18T21:43:56;12.40;;;11.10;;
57899;SDS011;60605;53.716;19.940;2023-09-18T21:49:00;13.20;;;11.50;;
57899;SDS011;60605;53.716;19.940;2023-09-18T21:54:08;13.00;;;11.60;;
57899;SDS011;60605;53.716;19.940;2023-09-18T21:59:12;12.30;;;11.10;;
57899;SDS011;60605;53.716;19.940;2023-09-18T22:04:15;14.00;;;11.10;;
57899;SDS011;60605;53.716;19.940;2023-09-18T22:09:26;12.70;;;10.60;;
57899;SDS011;60605;53.716;19.940;2023-09-18T22:14:30;11.60;;;10.50;;
57899;SDS011;60605;53.716;19.940;2023-09-18T22:19:33;15.80;;;11.40;;
57899;SDS011;60605;53.716;19.940;2023-09-18T22:24:36;13.30;;;11.00;;
57899;SDS011;60605;53.716;19.940;2023-09-18T22:29:39;17.20;;;11.40;;
57899;SDS011;60605;53.716;19.940;2023-09-18T22:34:43;12.30;;;10.90;;
57899;SDS011;60605;53.716;19.940;2023-09-18T22:56:21;11.70;;;10.40;;
57899;SDS011;60605;53.716;19.940;2023-09-18T23:01:28;13.40;;;11.10;;
57899;SDS011;60605;53.716;19.940;2023-09-18T23:06:33;12.60;;;10.50;;
57899;SDS011;60605;53.716;19.940;2023-09-18T23:11:36;13.10;;;11.30;;
57899;SDS011;60605;53.716;19.940;2023-09-18T23:16:40;11.90;;;10.70;;
57899;SDS011;60605;53.716;19.940;2023-09-18T23:21:43;11.50;;;10.30;;
57899;SDS011;60605;53.716;19.940;2023-09-18T23:26:47;13.90;;;11.00;;
57899;SDS011;60605;53.716;19.940;2023-09-18T23:31:51;18.50;;;11.20;;
57899;SDS011;60605;53.716;19.940;2023-09-18T23:36:54;12.10;;;10.80;;
57899;SDS011;60605;53.716;19.940;2023-09-18T23:42:00;12.30;;;10.60;;
57899;SDS011;60605;53.716;19.940;2023-09-18T23:47:04;13.60;;;11.00;;
57899;SDS011;60605;53.716;19.940;2023-09-18T23:52:11;12.80;;;10.40;;
57899;SDS011;60605;53.716;19.940;2023-09-18T23:57:14;12.80;;;11.30;;
